Impacts TAF Board
For situational awareness. Not to be used for flight planning purposes.
IDs:

KOLS - Nogales Intl, AZ, US

Issued at 2334 UTC 19 Sep 2020
Updated at 0138 UTC 20 Sep 2020
Potential Impact None Slight Moderate High
Time<<20/14Z 20/15Z 20/16Z 20/17Z 20/18Z 20/19Z 20/20Z 20/21Z 20/22Z 20/23Z 21/00Z 21/01Z 21/02Z>>
Type PRVL PRVL PRVL PRVL PRVL PRVL PRVL PRVL PRVL PRVL
VIS >6 >6 >6 >6 >6 >6 >6 >6 >6 >6
CIG -- -- -- -- -- -- -- -- -- --
Cover SKC SKC SKC SKC SCT SCT SCT SCT SCT SCT
FltCat VFR VFR VFR VFR VFR VFR VFR VFR VFR VFR
WX -- -- -- -- -- -- -- -- -- --
WDir VRB VRB VRB VRB 120 120 120 120 120 120
WSpd 3 3 3 3 6 6 6 6 6 6
WGst -- -- -- -- -- -- -- -- -- --
Raw TAF
KOLS 192334Z 2000/2024 28008KT P6SM SCT130
  FM200200 09006KT P6SM SKC
  FM201000 VRB03KT P6SM SKC
  FM201800 12006KT P6SM SCT130


METAR Board
Radar Display
Forecast Discussion
For situational awareness. Not to be used for flight planning purposes.